Angwin, CA

7:25 PM PDT on July 07, 2015 (GMT -0700)
Edgewood | | Change Station
CLOSE
Current Station
Personal Weather Station
Location: Angwin, CA
Elevation: 1766 ft
Nearby Weather Stations

Elev 1766 ft 38.57 °N, 122.44 °W | Updated 25 seconds ago

Clear
Clear
68.7 °F
Feels Like 68.7 °F
N
1.0
Wind Variable Wind from SW
Gusts 7.0 mph

Today
High -- | Low -- °F
--% Chance of Precip.
Yesterday
High -- | Low -- °F
Precip. -- in
5:52 AM 8:36 PM
Waning Gibbous, 59% visible
Pressure 29.86 in
Visibility 10.0 miles
Clouds Scattered Clouds 25000 ft
Dew Point 56 °F
Humidity 63%
Rainfall 0.00 in
Snow Depth Not available.
UV 1 out of 12
Pollen 5.00 out of 12
Air Quality Not available.
Flu Activity Not available.
METAR KSTS 080153Z 22008KT 10SM SCT250 22/13 A2988 RMK AO2 SLP111 T02170128

More Conditions Fewer Conditions

Pressure 29.86 in
Visibility 10.0 miles
Clouds Scattered Clouds 25000 ft
Dew Point 56 °F
Humidity 63%
Rainfall 0.00 in
Snow Depth Not available.
UV 1 out of 12
Pollen 5.00 out of 12
Air Quality Not available.
Flu Activity Not available.
METAR KSTS 080153Z 22008KT 10SM SCT250 22/13 A2988 RMK AO2 SLP111 T02170128

More Conditions Fewer Conditions

10-Day Weather Forecast

×

Almanac

Astronomy

Jul. 07, 2015 Rise Set
Actual Time
Civil Twilight
Nautical Twilight
Astronomical Twilight
Moon
Length of Visible Light
Length of Day
Tomorrow will be .
, % of the Moon is Illuminated

Today's Extremes

State Highs State Lows

Community

WunderPhotos

Upload Photos

1,836,013 photos uploaded!

WunderBlogs® & News

Nearby

Air Quality

  Air Quality AQ Index Pollutant
Not available.

Snow Depth

Station Depth Elevation

Earthquake Activity

City Distance Mag. Time & Date
Minimum magnitude displayed is 2.5.

Coastal Water Temperatures

Place Temperature

Stations

Nearby Weather Stations

Station Location Temp. Windchill Dew Point Humidity Wind Precip. Elev Updated Type